Skip Navigation Links Skip Navigation Links

Current Weather

Brookneal/Campbell County, Brookneal, Va.

For information only: do not use for flight planning or navigation.
Latest weather
Observation time Thursday, October 18, 2018 1:15 AM EDT
Local time Thursday, October 18, 2018 1:35 AM EDT
Flight conditions Conditions unknown
Winds
Wind speed calm
Sky condition
Ceiling unlimited
Temperature 48°F
Dewpoint 48°F
Altimeter 30.26 in.Hg
Derived measurements
Relative humidity 98%
Wind chill 48°F
Density altitude -338 ft.
Remarks
Fully automated report.
Automated weather observing station without precipitation discriminator.
METAR K0V4 180515Z AUTO 00000KT 09/09 A3026 RMK AO1 T00910088

Settings

Location code

InnerDrive.Weather 4.0.6770.0 Release CLR 4.0.30319.42000
Copyright ©2018 Inner Drive Technology. All rights reserved. Portions Copyright ©1986-2018 David Braverman.

Find weather

Site navigation


Skip Navigation Links

Place info

Page info

PayPal - The safer, easier way to pay online!

Return home.

Copyright ©2018 Inner Drive Technology. Purveyors of fine, hand-crafted computer software. Page printed 2018-10-18T05:35:28 UTC.